Parker Lake, Missouri
Current Conditions -  °F | °C
As of 2:55 AM on Sunday 23 Nov 2014 (Local Time) from KFAM Reporting Station
Broken Clouds Broken Clouds  
Wind Chill: 50°   Ceiling: 3300
Heat Index: 50°   Visibility: 10mi
Dew Point: 45°   Wind: 6mph
Humidity: 82%   Direction: 130°SE
Pressure: 29.83"   Gusts: NA
Location:  37.7127°N, 89.8903°W
Report Text: KFAM 230855Z AUTO 13005KT 10SM BKN033 10/07 A2983 RMK AO1 57027
Loading
Personal Weather Stations






























Interactive Weather Map New forecast layout! Learn more

10-Day Weather Forecast

Advertisements
Track Severe Weather on mobile